sensor_id;sensor_type;location;lat;lon;timestamp;P1;durP1;ratioP1;P2;durP2;ratioP2
7545;SDS011;3814;51.454;12.616;2024-01-30T00:00:38;5.70;;;3.03;;
7545;SDS011;3814;51.454;12.616;2024-01-30T00:03:04;4.95;;;3.20;;
7545;SDS011;3814;51.454;12.616;2024-01-30T00:05:29;6.22;;;3.10;;
7545;SDS011;3814;51.454;12.616;2024-01-30T00:07:55;4.93;;;2.93;;
7545;SDS011;3814;51.454;12.616;2024-01-30T00:10:20;5.60;;;3.60;;
7545;SDS011;3814;51.454;12.616;2024-01-30T00:12:46;4.27;;;2.70;;
7545;SDS011;3814;51.454;12.616;2024-01-30T00:15:11;8.02;;;3.33;;
7545;SDS011;3814;51.454;12.616;2024-01-30T00:17:36;6.30;;;3.30;;
7545;SDS011;3814;51.454;12.616;2024-01-30T00:20:02;8.23;;;3.53;;
7545;SDS011;3814;51.454;12.616;2024-01-30T00:22:30;6.13;;;3.25;;
7545;SDS011;3814;51.454;12.616;2024-01-30T00:24:56;6.18;;;3.20;;
7545;SDS011;3814;51.454;12.616;2024-01-30T00:27:22;6.30;;;3.20;;
7545;SDS011;3814;51.454;12.616;2024-01-30T00:29:47;5.83;;;3.40;;
7545;SDS011;3814;51.454;12.616;2024-01-30T00:32:12;5.63;;;3.70;;
7545;SDS011;3814;51.454;12.616;2024-01-30T00:34:38;4.60;;;3.33;;
7545;SDS011;3814;51.454;12.616;2024-01-30T00:37:03;5.20;;;3.33;;
7545;SDS011;3814;51.454;12.616;2024-01-30T00:39:29;5.13;;;2.83;;
7545;SDS011;3814;51.454;12.616;2024-01-30T00:41:54;4.05;;;2.85;;
7545;SDS011;3814;51.454;12.616;2024-01-30T00:44:20;6.38;;;3.05;;
7545;SDS011;3814;51.454;12.616;2024-01-30T00:46:46;6.93;;;3.78;;
7545;SDS011;3814;51.454;12.616;2024-01-30T00:49:11;4.03;;;3.00;;
7545;SDS011;3814;51.454;12.616;2024-01-30T00:51:36;5.88;;;3.00;;
7545;SDS011;3814;51.454;12.616;2024-01-30T00:54:02;6.18;;;3.22;;
7545;SDS011;3814;51.454;12.616;2024-01-30T00:56:27;7.07;;;3.38;;
7545;SDS011;3814;51.454;12.616;2024-01-30T00:58:53;4.13;;;2.90;;
7545;SDS011;3814;51.454;12.616;2024-01-30T01:01:18;6.68;;;3.42;;
7545;SDS011;3814;51.454;12.616;2024-01-30T01:03:44;6.88;;;3.35;;
7545;SDS011;3814;51.454;12.616;2024-01-30T01:06:09;6.22;;;3.58;;
7545;SDS011;3814;51.454;12.616;2024-01-30T01:08:35;4.70;;;3.00;;
7545;SDS011;3814;51.454;12.616;2024-01-30T01:11:01;5.13;;;3.05;;
7545;SDS011;3814;51.454;12.616;2024-01-30T01:13:26;6.65;;;3.42;;
7545;SDS011;3814;51.454;12.616;2024-01-30T01:15:51;7.57;;;3.50;;
7545;SDS011;3814;51.454;12.616;2024-01-30T01:18:17;5.57;;;3.40;;
7545;SDS011;3814;51.454;12.616;2024-01-30T01:20:42;6.27;;;3.30;;
7545;SDS011;3814;51.454;12.616;2024-01-30T01:23:07;5.68;;;3.33;;
7545;SDS011;3814;51.454;12.616;2024-01-30T01:25:33;4.83;;;2.97;;
7545;SDS011;3814;51.454;12.616;2024-01-30T01:27:58;8.50;;;3.93;;
7545;SDS011;3814;51.454;12.616;2024-01-30T01:30:26;7.20;;;3.83;;
7545;SDS011;3814;51.454;12.616;2024-01-30T01:32:51;4.53;;;3.20;;
7545;SDS011;3814;51.454;12.616;2024-01-30T01:35:21;7.28;;;3.70;;
7545;SDS011;3814;51.454;12.616;2024-01-30T01:37:47;7.63;;;3.78;;
7545;SDS011;3814;51.454;12.616;2024-01-30T01:40:19;7.38;;;3.88;;
7545;SDS011;3814;51.454;12.616;2024-01-30T01:42:45;6.95;;;3.80;;
7545;SDS011;3814;51.454;12.616;2024-01-30T01:45:10;6.00;;;3.50;;
7545;SDS011;3814;51.454;12.616;2024-01-30T01:47:35;7.97;;;3.83;;
7545;SDS011;3814;51.454;12.616;2024-01-30T01:50:02;4.45;;;3.00;;
7545;SDS011;3814;51.454;12.616;2024-01-30T01:52:27;6.50;;;3.30;;
7545;SDS011;3814;51.454;12.616;2024-01-30T01:54:54;6.40;;;3.45;;
7545;SDS011;3814;51.454;12.616;2024-01-30T01:57:20;6.75;;;3.28;;
7545;SDS011;3814;51.454;12.616;2024-01-30T01:59:45;6.18;;;3.80;;
7545;SDS011;3814;51.454;12.616;2024-01-30T02:02:11;7.03;;;3.60;;
7545;SDS011;3814;51.454;12.616;2024-01-30T02:04:36;5.35;;;3.45;;
7545;SDS011;3814;51.454;12.616;2024-01-30T02:07:02;5.55;;;3.40;;
7545;SDS011;3814;51.454;12.616;2024-01-30T02:09:27;7.22;;;3.75;;
7545;SDS011;3814;51.454;12.616;2024-01-30T02:11:52;5.53;;;3.20;;
7545;SDS011;3814;51.454;12.616;2024-01-30T02:14:19;6.57;;;3.80;;
7545;SDS011;3814;51.454;12.616;2024-01-30T02:16:45;7.50;;;4.30;;
7545;SDS011;3814;51.454;12.616;2024-01-30T02:19:10;6.93;;;3.57;;
7545;SDS011;3814;51.454;12.616;2024-01-30T02:21:36;8.13;;;4.38;;
7545;SDS011;3814;51.454;12.616;2024-01-30T02:24:02;6.88;;;4.05;;
7545;SDS011;3814;51.454;12.616;2024-01-30T02:26:28;8.52;;;3.85;;
7545;SDS011;3814;51.454;12.616;2024-01-30T02:28:53;7.15;;;4.13;;
7545;SDS011;3814;51.454;12.616;2024-01-30T02:31:19;7.57;;;3.80;;
7545;SDS011;3814;51.454;12.616;2024-01-30T02:33:44;7.23;;;3.50;;
7545;SDS011;3814;51.454;12.616;2024-01-30T02:36:09;6.50;;;3.87;;
7545;SDS011;3814;51.454;12.616;2024-01-30T02:38:35;6.40;;;4.07;;
7545;SDS011;3814;51.454;12.616;2024-01-30T02:41:00;5.30;;;3.07;;
7545;SDS011;3814;51.454;12.616;2024-01-30T02:43:26;5.45;;;3.20;;
7545;SDS011;3814;51.454;12.616;2024-01-30T02:45:52;8.27;;;3.88;;
7545;SDS011;3814;51.454;12.616;2024-01-30T02:48:17;7.37;;;3.40;;
7545;SDS011;3814;51.454;12.616;2024-01-30T02:50:42;7.00;;;3.97;;
7545;SDS011;3814;51.454;12.616;2024-01-30T02:53:08;6.85;;;3.35;;
7545;SDS011;3814;51.454;12.616;2024-01-30T02:55:33;5.93;;;3.40;;
7545;SDS011;3814;51.454;12.616;2024-01-30T02:57:58;6.77;;;3.93;;
7545;SDS011;3814;51.454;12.616;2024-01-30T03:00:24;7.50;;;3.50;;
7545;SDS011;3814;51.454;12.616;2024-01-30T03:02:49;7.07;;;4.00;;
7545;SDS011;3814;51.454;12.616;2024-01-30T03:05:14;5.77;;;3.40;;
7545;SDS011;3814;51.454;12.616;2024-01-30T03:07:40;7.50;;;3.57;;
7545;SDS011;3814;51.454;12.616;2024-01-30T03:10:05;6.07;;;3.67;;
7545;SDS011;3814;51.454;12.616;2024-01-30T03:12:31;7.75;;;3.75;;
7545;SDS011;3814;51.454;12.616;2024-01-30T03:14:56;7.15;;;3.78;;
7545;SDS011;3814;51.454;12.616;2024-01-30T03:17:22;6.07;;;3.43;;
7545;SDS011;3814;51.454;12.616;2024-01-30T03:19:49;5.50;;;3.28;;
7545;SDS011;3814;51.454;12.616;2024-01-30T03:22:14;6.10;;;3.57;;
7545;SDS011;3814;51.454;12.616;2024-01-30T03:24:39;9.70;;;3.90;;
7545;SDS011;3814;51.454;12.616;2024-01-30T03:27:05;6.25;;;3.70;;
7545;SDS011;3814;51.454;12.616;2024-01-30T03:29:30;5.73;;;3.63;;
7545;SDS011;3814;51.454;12.616;2024-01-30T03:31:55;5.03;;;3.43;;
7545;SDS011;3814;51.454;12.616;2024-01-30T03:34:21;7.47;;;3.43;;
7545;SDS011;3814;51.454;12.616;2024-01-30T03:36:46;10.23;;;3.90;;
7545;SDS011;3814;51.454;12.616;2024-01-30T03:39:11;7.97;;;3.90;;
7545;SDS011;3814;51.454;12.616;2024-01-30T03:41:36;5.60;;;3.40;;
7545;SDS011;3814;51.454;12.616;2024-01-30T03:44:02;7.63;;;4.03;;
7545;SDS011;3814;51.454;12.616;2024-01-30T03:46:27;7.32;;;3.63;;
7545;SDS011;3814;51.454;12.616;2024-01-30T03:48:53;6.73;;;3.40;;
7545;SDS011;3814;51.454;12.616;2024-01-30T03:51:18;6.13;;;3.88;;
7545;SDS011;3814;51.454;12.616;2024-01-30T03:53:44;7.57;;;3.90;;
7545;SDS011;3814;51.454;12.616;2024-01-30T03:56:11;7.95;;;3.80;;
7545;SDS011;3814;51.454;12.616;2024-01-30T03:58:38;7.35;;;3.83;;
7545;SDS011;3814;51.454;12.616;2024-01-30T04:01:04;7.47;;;3.47;;
7545;SDS011;3814;51.454;12.616;2024-01-30T04:03:29;7.57;;;3.55;;
7545;SDS011;3814;51.454;12.616;2024-01-30T04:05:55;6.37;;;3.33;;
7545;SDS011;3814;51.454;12.616;2024-01-30T04:08:20;5.47;;;3.33;;
7545;SDS011;3814;51.454;12.616;2024-01-30T04:10:46;7.03;;;3.97;;
7545;SDS011;3814;51.454;12.616;2024-01-30T04:13:12;6.05;;;3.40;;
7545;SDS011;3814;51.454;12.616;2024-01-30T04:15:37;5.45;;;3.10;;
7545;SDS011;3814;51.454;12.616;2024-01-30T04:18:03;5.07;;;3.33;;
7545;SDS011;3814;51.454;12.616;2024-01-30T04:20:29;6.20;;;3.00;;
7545;SDS011;3814;51.454;12.616;2024-01-30T04:22:54;7.25;;;3.42;;
7545;SDS011;3814;51.454;12.616;2024-01-30T04:25:20;6.55;;;3.78;;
7545;SDS011;3814;51.454;12.616;2024-01-30T04:27:45;5.93;;;3.15;;
7545;SDS011;3814;51.454;12.616;2024-01-30T04:30:12;5.88;;;3.38;;
7545;SDS011;3814;51.454;12.616;2024-01-30T04:32:38;5.28;;;3.13;;
7545;SDS011;3814;51.454;12.616;2024-01-30T04:35:03;5.90;;;3.30;;
7545;SDS011;3814;51.454;12.616;2024-01-30T04:37:29;5.88;;;3.22;;
7545;SDS011;3814;51.454;12.616;2024-01-30T04:39:54;10.02;;;4.20;;
7545;SDS011;3814;51.454;12.616;2024-01-30T04:42:20;8.00;;;3.43;;
7545;SDS011;3814;51.454;12.616;2024-01-30T04:44:45;5.45;;;2.92;;
7545;SDS011;3814;51.454;12.616;2024-01-30T04:47:11;5.05;;;3.40;;
7545;SDS011;3814;51.454;12.616;2024-01-30T04:49:38;4.93;;;2.95;;
7545;SDS011;3814;51.454;12.616;2024-01-30T04:52:04;6.47;;;3.45;;
7545;SDS011;3814;51.454;12.616;2024-01-30T04:54:29;6.93;;;3.97;;
7545;SDS011;3814;51.454;12.616;2024-01-30T04:56:54;5.97;;;3.23;;
7545;SDS011;3814;51.454;12.616;2024-01-30T04:59:20;6.30;;;3.77;;
7545;SDS011;3814;51.454;12.616;2024-01-30T05:01:45;7.13;;;3.38;;
7545;SDS011;3814;51.454;12.616;2024-01-30T05:04:11;6.13;;;3.30;;
7545;SDS011;3814;51.454;12.616;2024-01-30T05:06:36;5.45;;;3.30;;
7545;SDS011;3814;51.454;12.616;2024-01-30T05:09:02;5.60;;;3.05;;
7545;SDS011;3814;51.454;12.616;2024-01-30T05:11:29;5.18;;;3.13;;
7545;SDS011;3814;51.454;12.616;2024-01-30T05:13:54;6.33;;;3.63;;
7545;SDS011;3814;51.454;12.616;2024-01-30T05:16:19;7.03;;;3.90;;
7545;SDS011;3814;51.454;12.616;2024-01-30T05:18:45;5.67;;;3.07;;
7545;SDS011;3814;51.454;12.616;2024-01-30T05:21:10;6.07;;;3.13;;
7545;SDS011;3814;51.454;12.616;2024-01-30T05:23:36;6.28;;;3.35;;
7545;SDS011;3814;51.454;12.616;2024-01-30T05:26:01;5.47;;;3.03;;
7545;SDS011;3814;51.454;12.616;2024-01-30T05:28:27;6.97;;;3.67;;
7545;SDS011;3814;51.454;12.616;2024-01-30T05:30:53;4.65;;;2.95;;
7545;SDS011;3814;51.454;12.616;2024-01-30T05:33:18;6.40;;;3.30;;
7545;SDS011;3814;51.454;12.616;2024-01-30T05:35:44;5.73;;;3.27;;
7545;SDS011;3814;51.454;12.616;2024-01-30T05:38:09;7.70;;;3.60;;
7545;SDS011;3814;51.454;12.616;2024-01-30T05:40:34;6.30;;;3.13;;
7545;SDS011;3814;51.454;12.616;2024-01-30T05:43:00;6.70;;;3.27;;
7545;SDS011;3814;51.454;12.616;2024-01-30T05:45:26;6.50;;;3.30;;
7545;SDS011;3814;51.454;12.616;2024-01-30T05:47:52;6.70;;;3.33;;
7545;SDS011;3814;51.454;12.616;2024-01-30T05:50:17;6.40;;;3.40;;
7545;SDS011;3814;51.454;12.616;2024-01-30T05:52:42;5.20;;;3.50;;
7545;SDS011;3814;51.454;12.616;2024-01-30T05:55:08;7.73;;;4.17;;
7545;SDS011;3814;51.454;12.616;2024-01-30T05:57:34;6.05;;;3.80;;
7545;SDS011;3814;51.454;12.616;2024-01-30T06:00:00;5.77;;;3.70;;
7545;SDS011;3814;51.454;12.616;2024-01-30T06:02:25;7.90;;;3.33;;
7545;SDS011;3814;51.454;12.616;2024-01-30T06:04:50;6.53;;;3.10;;
7545;SDS011;3814;51.454;12.616;2024-01-30T06:07:15;4.83;;;3.30;;
7545;SDS011;3814;51.454;12.616;2024-01-30T06:09:42;5.28;;;3.10;;
7545;SDS011;3814;51.454;12.616;2024-01-30T06:12:07;6.50;;;3.33;;
7545;SDS011;3814;51.454;12.616;2024-01-30T06:14:33;6.57;;;3.53;;
7545;SDS011;3814;51.454;12.616;2024-01-30T06:16:58;4.93;;;3.20;;
7545;SDS011;3814;51.454;12.616;2024-01-30T06:19:24;5.85;;;2.97;;
7545;SDS011;3814;51.454;12.616;2024-01-30T06:21:49;6.23;;;3.53;;
7545;SDS011;3814;51.454;12.616;2024-01-30T06:24:14;5.83;;;4.00;;
7545;SDS011;3814;51.454;12.616;2024-01-30T06:26:40;5.53;;;3.37;;
7545;SDS011;3814;51.454;12.616;2024-01-30T06:29:06;7.78;;;3.45;;
7545;SDS011;3814;51.454;12.616;2024-01-30T06:31:32;8.02;;;3.40;;
7545;SDS011;3814;51.454;12.616;2024-01-30T06:33:57;6.70;;;3.33;;
7545;SDS011;3814;51.454;12.616;2024-01-30T06:36:23;5.27;;;3.60;;
7545;SDS011;3814;51.454;12.616;2024-01-30T06:38:48;7.20;;;3.20;;
7545;SDS011;3814;51.454;12.616;2024-01-30T06:41:13;6.13;;;3.33;;
7545;SDS011;3814;51.454;12.616;2024-01-30T06:43:39;6.80;;;3.37;;
7545;SDS011;3814;51.454;12.616;2024-01-30T06:46:04;8.05;;;3.28;;
7545;SDS011;3814;51.454;12.616;2024-01-30T06:48:29;5.63;;;3.30;;
7545;SDS011;3814;51.454;12.616;2024-01-30T06:50:55;6.63;;;3.20;;
7545;SDS011;3814;51.454;12.616;2024-01-30T06:53:20;6.28;;;3.70;;
7545;SDS011;3814;51.454;12.616;2024-01-30T06:55:45;6.10;;;2.87;;
7545;SDS011;3814;51.454;12.616;2024-01-30T06:58:11;6.00;;;3.17;;
7545;SDS011;3814;51.454;12.616;2024-01-30T07:00:36;4.73;;;3.27;;
7545;SDS011;3814;51.454;12.616;2024-01-30T07:03:02;6.05;;;3.40;;
7545;SDS011;3814;51.454;12.616;2024-01-30T07:05:27;6.47;;;3.60;;
7545;SDS011;3814;51.454;12.616;2024-01-30T07:07:52;5.83;;;3.03;;
7545;SDS011;3814;51.454;12.616;2024-01-30T07:10:17;6.70;;;3.83;;
7545;SDS011;3814;51.454;12.616;2024-01-30T07:12:43;5.20;;;3.70;;
7545;SDS011;3814;51.454;12.616;2024-01-30T07:15:08;6.13;;;3.37;;
7545;SDS011;3814;51.454;12.616;2024-01-30T07:17:34;7.90;;;3.80;;
7545;SDS011;3814;51.454;12.616;2024-01-30T07:20:00;5.50;;;3.33;;
7545;SDS011;3814;51.454;12.616;2024-01-30T07:22:25;6.75;;;4.10;;
7545;SDS011;3814;51.454;12.616;2024-01-30T07:24:50;6.40;;;3.30;;
7545;SDS011;3814;51.454;12.616;2024-01-30T07:27:18;5.75;;;3.40;;
7545;SDS011;3814;51.454;12.616;2024-01-30T07:29:43;7.47;;;3.88;;
7545;SDS011;3814;51.454;12.616;2024-01-30T07:32:09;5.55;;;3.45;;
7545;SDS011;3814;51.454;12.616;2024-01-30T07:34:34;6.53;;;3.80;;
7545;SDS011;3814;51.454;12.616;2024-01-30T07:37:01;5.63;;;3.13;;
7545;SDS011;3814;51.454;12.616;2024-01-30T07:39:26;6.57;;;3.50;;
7545;SDS011;3814;51.454;12.616;2024-01-30T07:41:51;5.67;;;3.23;;
7545;SDS011;3814;51.454;12.616;2024-01-30T07:44:17;8.50;;;3.83;;
7545;SDS011;3814;51.454;12.616;2024-01-30T07:46:42;5.60;;;4.00;;
7545;SDS011;3814;51.454;12.616;2024-01-30T07:49:07;4.97;;;3.03;;
7545;SDS011;3814;51.454;12.616;2024-01-30T07:51:32;8.30;;;3.80;;
7545;SDS011;3814;51.454;12.616;2024-01-30T07:53:58;7.03;;;3.70;;
7545;SDS011;3814;51.454;12.616;2024-01-30T07:56:23;7.60;;;3.78;;
7545;SDS011;3814;51.454;12.616;2024-01-30T07:58:49;11.63;;;4.43;;
7545;SDS011;3814;51.454;12.616;2024-01-30T08:01:14;5.53;;;3.80;;
7545;SDS011;3814;51.454;12.616;2024-01-30T08:03:40;7.88;;;3.65;;
7545;SDS011;3814;51.454;12.616;2024-01-30T08:06:06;6.18;;;4.35;;
7545;SDS011;3814;51.454;12.616;2024-01-30T08:08:31;5.90;;;3.60;;
7545;SDS011;3814;51.454;12.616;2024-01-30T08:10:57;6.53;;;3.77;;
7545;SDS011;3814;51.454;12.616;2024-01-30T08:13:22;6.20;;;3.73;;
7545;SDS011;3814;51.454;12.616;2024-01-30T08:15:47;8.97;;;3.77;;
7545;SDS011;3814;51.454;12.616;2024-01-30T08:18:13;6.07;;;3.80;;
7545;SDS011;3814;51.454;12.616;2024-01-30T08:20:38;7.43;;;3.67;;
7545;SDS011;3814;51.454;12.616;2024-01-30T08:23:03;8.13;;;3.93;;
7545;SDS011;3814;51.454;12.616;2024-01-30T08:25:29;7.63;;;4.10;;
7545;SDS011;3814;51.454;12.616;2024-01-30T08:27:54;8.40;;;4.40;;
7545;SDS011;3814;51.454;12.616;2024-01-30T08:30:20;5.77;;;3.83;;
7545;SDS011;3814;51.454;12.616;2024-01-30T08:32:45;9.63;;;4.45;;
7545;SDS011;3814;51.454;12.616;2024-01-30T08:35:11;7.50;;;3.57;;
7545;SDS011;3814;51.454;12.616;2024-01-30T08:37:38;7.57;;;4.05;;
7545;SDS011;3814;51.454;12.616;2024-01-30T08:40:04;7.87;;;4.47;;
7545;SDS011;3814;51.454;12.616;2024-01-30T08:42:29;8.23;;;4.20;;
7545;SDS011;3814;51.454;12.616;2024-01-30T08:44:55;7.73;;;4.17;;
7545;SDS011;3814;51.454;12.616;2024-01-30T08:47:21;8.68;;;4.22;;
7545;SDS011;3814;51.454;12.616;2024-01-30T08:49:46;6.43;;;3.88;;
7545;SDS011;3814;51.454;12.616;2024-01-30T08:52:11;6.13;;;3.90;;
7545;SDS011;3814;51.454;12.616;2024-01-30T08:54:37;7.77;;;4.00;;
7545;SDS011;3814;51.454;12.616;2024-01-30T08:57:02;7.90;;;4.33;;
7545;SDS011;3814;51.454;12.616;2024-01-30T08:59:29;6.95;;;3.80;;
7545;SDS011;3814;51.454;12.616;2024-01-30T09:01:54;8.17;;;4.07;;
7545;SDS011;3814;51.454;12.616;2024-01-30T09:04:20;7.50;;;4.28;;
7545;SDS011;3814;51.454;12.616;2024-01-30T09:06:46;7.13;;;4.00;;
7545;SDS011;3814;51.454;12.616;2024-01-30T09:09:11;7.23;;;3.77;;
7545;SDS011;3814;51.454;12.616;2024-01-30T09:11:36;8.70;;;4.67;;
7545;SDS011;3814;51.454;12.616;2024-01-30T09:14:02;8.73;;;3.87;;
7545;SDS011;3814;51.454;12.616;2024-01-30T09:16:27;11.87;;;4.67;;
7545;SDS011;3814;51.454;12.616;2024-01-30T09:18:53;12.68;;;4.65;;
7545;SDS011;3814;51.454;12.616;2024-01-30T09:21:18;6.93;;;4.20;;
7545;SDS011;3814;51.454;12.616;2024-01-30T09:23:44;7.60;;;4.20;;
7545;SDS011;3814;51.454;12.616;2024-01-30T09:26:09;6.73;;;4.40;;
7545;SDS011;3814;51.454;12.616;2024-01-30T09:28:34;10.73;;;4.37;;
7545;SDS011;3814;51.454;12.616;2024-01-30T09:30:59;9.37;;;4.40;;
7545;SDS011;3814;51.454;12.616;2024-01-30T09:33:25;8.40;;;4.13;;
7545;SDS011;3814;51.454;12.616;2024-01-30T09:35:50;8.33;;;4.70;;
7545;SDS011;3814;51.454;12.616;2024-01-30T09:38:16;6.78;;;3.65;;
7545;SDS011;3814;51.454;12.616;2024-01-30T09:40:41;7.73;;;4.43;;
7545;SDS011;3814;51.454;12.616;2024-01-30T09:43:07;7.57;;;4.47;;
7545;SDS011;3814;51.454;12.616;2024-01-30T09:45:32;7.03;;;3.87;;
7545;SDS011;3814;51.454;12.616;2024-01-30T09:47:58;8.13;;;4.78;;
7545;SDS011;3814;51.454;12.616;2024-01-30T09:50:24;10.05;;;4.35;;
7545;SDS011;3814;51.454;12.616;2024-01-30T09:52:49;10.15;;;4.40;;
7545;SDS011;3814;51.454;12.616;2024-01-30T09:55:16;6.13;;;4.00;;
7545;SDS011;3814;51.454;12.616;2024-01-30T09:57:41;6.95;;;4.20;;
7545;SDS011;3814;51.454;12.616;2024-01-30T10:00:07;6.37;;;4.20;;
7545;SDS011;3814;51.454;12.616;2024-01-30T10:02:33;8.35;;;4.25;;
7545;SDS011;3814;51.454;12.616;2024-01-30T10:04:59;6.63;;;4.20;;
7545;SDS011;3814;51.454;12.616;2024-01-30T10:07:25;9.18;;;4.50;;
7545;SDS011;3814;51.454;12.616;2024-01-30T10:09:50;7.73;;;4.53;;
7545;SDS011;3814;51.454;12.616;2024-01-30T10:12:16;8.27;;;4.40;;
7545;SDS011;3814;51.454;12.616;2024-01-30T10:14:42;8.40;;;4.53;;
7545;SDS011;3814;51.454;12.616;2024-01-30T10:17:08;9.00;;;4.38;;
7545;SDS011;3814;51.454;12.616;2024-01-30T10:19:34;7.90;;;4.70;;
7545;SDS011;3814;51.454;12.616;2024-01-30T10:22:00;10.13;;;5.47;;
7545;SDS011;3814;51.454;12.616;2024-01-30T10:24:25;8.00;;;5.27;;
7545;SDS011;3814;51.454;12.616;2024-01-30T10:26:51;9.00;;;5.38;;
7545;SDS011;3814;51.454;12.616;2024-01-30T10:29:17;7.57;;;4.50;;
7545;SDS011;3814;51.454;12.616;2024-01-30T10:31:42;9.55;;;5.28;;
7545;SDS011;3814;51.454;12.616;2024-01-30T10:34:07;8.77;;;4.43;;
7545;SDS011;3814;51.454;12.616;2024-01-30T10:36:33;10.80;;;4.97;;
7545;SDS011;3814;51.454;12.616;2024-01-30T10:39:05;10.15;;;5.20;;
7545;SDS011;3814;51.454;12.616;2024-01-30T10:41:31;8.70;;;5.25;;
7545;SDS011;3814;51.454;12.616;2024-01-30T10:44:10;8.85;;;5.30;;
7545;SDS011;3814;51.454;12.616;2024-01-30T10:46:39;7.53;;;4.68;;
7545;SDS011;3814;51.454;12.616;2024-01-30T10:49:07;7.32;;;5.40;;
7545;SDS011;3814;51.454;12.616;2024-01-30T10:51:33;9.63;;;5.60;;
7545;SDS011;3814;51.454;12.616;2024-01-30T10:54:00;8.48;;;4.78;;
7545;SDS011;3814;51.454;12.616;2024-01-30T10:56:26;9.30;;;5.38;;
7545;SDS011;3814;51.454;12.616;2024-01-30T10:58:52;9.60;;;5.70;;
7545;SDS011;3814;51.454;12.616;2024-01-30T11:01:24;9.27;;;5.55;;
7545;SDS011;3814;51.454;12.616;2024-01-30T11:03:53;11.13;;;5.63;;
7545;SDS011;3814;51.454;12.616;2024-01-30T11:06:21;9.75;;;5.35;;
7545;SDS011;3814;51.454;12.616;2024-01-30T11:08:59;11.32;;;6.80;;
7545;SDS011;3814;51.454;12.616;2024-01-30T11:11:25;10.00;;;5.68;;
7545;SDS011;3814;51.454;12.616;2024-01-30T11:13:50;10.30;;;4.90;;
7545;SDS011;3814;51.454;12.616;2024-01-30T11:16:16;8.02;;;4.68;;
7545;SDS011;3814;51.454;12.616;2024-01-30T11:18:41;7.50;;;4.90;;
7545;SDS011;3814;51.454;12.616;2024-01-30T11:21:06;10.13;;;5.57;;
7545;SDS011;3814;51.454;12.616;2024-01-30T11:23:33;9.83;;;4.87;;
7545;SDS011;3814;51.454;12.616;2024-01-30T11:25:58;8.10;;;5.15;;
7545;SDS011;3814;51.454;12.616;2024-01-30T11:28:24;8.00;;;5.23;;
7545;SDS011;3814;51.454;12.616;2024-01-30T11:30:49;13.30;;;7.03;;
7545;SDS011;3814;51.454;12.616;2024-01-30T11:33:16;11.68;;;5.65;;
7545;SDS011;3814;51.454;12.616;2024-01-30T11:35:52;10.45;;;5.47;;
7545;SDS011;3814;51.454;12.616;2024-01-30T11:38:17;10.48;;;5.60;;
7545;SDS011;3814;51.454;12.616;2024-01-30T11:40:43;10.20;;;5.17;;
7545;SDS011;3814;51.454;12.616;2024-01-30T11:43:08;8.27;;;5.50;;
7545;SDS011;3814;51.454;12.616;2024-01-30T11:45:34;7.85;;;4.78;;
7545;SDS011;3814;51.454;12.616;2024-01-30T11:48:00;7.30;;;4.82;;
7545;SDS011;3814;51.454;12.616;2024-01-30T11:50:28;9.15;;;4.93;;
7545;SDS011;3814;51.454;12.616;2024-01-30T11:52:54;8.15;;;4.80;;
7545;SDS011;3814;51.454;12.616;2024-01-30T11:55:19;10.32;;;4.78;;
7545;SDS011;3814;51.454;12.616;2024-01-30T11:57:45;10.80;;;5.25;;
7545;SDS011;3814;51.454;12.616;2024-01-30T12:00:19;6.90;;;4.90;;
7545;SDS011;3814;51.454;12.616;2024-01-30T12:02:49;8.93;;;4.78;;
7545;SDS011;3814;51.454;12.616;2024-01-30T12:05:15;11.60;;;5.43;;
7545;SDS011;3814;51.454;12.616;2024-01-30T12:07:43;9.50;;;5.43;;
7545;SDS011;3814;51.454;12.616;2024-01-30T12:10:09;10.77;;;5.13;;
7545;SDS011;3814;51.454;12.616;2024-01-30T12:12:34;7.78;;;4.95;;
7545;SDS011;3814;51.454;12.616;2024-01-30T12:15:00;7.63;;;4.93;;
7545;SDS011;3814;51.454;12.616;2024-01-30T12:17:29;8.82;;;4.68;;
7545;SDS011;3814;51.454;12.616;2024-01-30T12:20:15;9.40;;;5.63;;
7545;SDS011;3814;51.454;12.616;2024-01-30T12:22:43;8.82;;;5.05;;
7545;SDS011;3814;51.454;12.616;2024-01-30T12:25:10;8.52;;;5.15;;
7545;SDS011;3814;51.454;12.616;2024-01-30T12:27:36;10.38;;;5.53;;
7545;SDS011;3814;51.454;12.616;2024-01-30T12:30:09;10.48;;;5.32;;
7545;SDS011;3814;51.454;12.616;2024-01-30T12:32:36;7.00;;;4.88;;
7545;SDS011;3814;51.454;12.616;2024-01-30T12:35:02;8.85;;;4.85;;
7545;SDS011;3814;51.454;12.616;2024-01-30T12:37:29;9.10;;;5.05;;
7545;SDS011;3814;51.454;12.616;2024-01-30T12:39:54;10.15;;;5.43;;
7545;SDS011;3814;51.454;12.616;2024-01-30T12:42:20;9.23;;;5.13;;
7545;SDS011;3814;51.454;12.616;2024-01-30T12:44:47;8.73;;;5.65;;
7545;SDS011;3814;51.454;12.616;2024-01-30T12:47:12;8.93;;;5.18;;
7545;SDS011;3814;51.454;12.616;2024-01-30T12:49:38;8.27;;;5.07;;
7545;SDS011;3814;51.454;12.616;2024-01-30T12:52:03;8.03;;;5.20;;
7545;SDS011;3814;51.454;12.616;2024-01-30T12:54:28;10.10;;;5.53;;
7545;SDS011;3814;51.454;12.616;2024-01-30T12:56:54;9.40;;;5.37;;
7545;SDS011;3814;51.454;12.616;2024-01-30T12:59:19;8.67;;;5.17;;
7545;SDS011;3814;51.454;12.616;2024-01-30T13:01:44;8.38;;;4.53;;
7545;SDS011;3814;51.454;12.616;2024-01-30T13:04:10;8.57;;;5.00;;
7545;SDS011;3814;51.454;12.616;2024-01-30T13:06:36;6.50;;;4.32;;
7545;SDS011;3814;51.454;12.616;2024-01-30T13:09:01;7.68;;;5.07;;
7545;SDS011;3814;51.454;12.616;2024-01-30T13:11:26;6.70;;;4.63;;
7545;SDS011;3814;51.454;12.616;2024-01-30T13:13:52;9.50;;;5.40;;
7545;SDS011;3814;51.454;12.616;2024-01-30T13:16:17;9.50;;;5.20;;
7545;SDS011;3814;51.454;12.616;2024-01-30T13:18:43;7.60;;;4.60;;
7545;SDS011;3814;51.454;12.616;2024-01-30T13:21:09;9.73;;;4.68;;
7545;SDS011;3814;51.454;12.616;2024-01-30T13:23:34;9.73;;;5.33;;
7545;SDS011;3814;51.454;12.616;2024-01-30T13:25:59;9.95;;;5.05;;
7545;SDS011;3814;51.454;12.616;2024-01-30T13:28:25;7.50;;;4.73;;
7545;SDS011;3814;51.454;12.616;2024-01-30T13:30:51;8.57;;;5.07;;
7545;SDS011;3814;51.454;12.616;2024-01-30T13:33:17;8.98;;;5.07;;
7545;SDS011;3814;51.454;12.616;2024-01-30T13:35:42;8.77;;;4.65;;
7545;SDS011;3814;51.454;12.616;2024-01-30T13:38:07;8.05;;;4.93;;
7545;SDS011;3814;51.454;12.616;2024-01-30T13:40:33;6.28;;;4.50;;
7545;SDS011;3814;51.454;12.616;2024-01-30T13:42:58;7.17;;;5.10;;
7545;SDS011;3814;51.454;12.616;2024-01-30T13:45:23;8.67;;;5.03;;
7545;SDS011;3814;51.454;12.616;2024-01-30T13:47:49;8.23;;;4.53;;
7545;SDS011;3814;51.454;12.616;2024-01-30T13:50:14;8.07;;;5.37;;
7545;SDS011;3814;51.454;12.616;2024-01-30T13:52:41;10.43;;;5.15;;
7545;SDS011;3814;51.454;12.616;2024-01-30T13:55:07;7.22;;;5.07;;
7545;SDS011;3814;51.454;12.616;2024-01-30T13:57:32;9.57;;;4.90;;
7545;SDS011;3814;51.454;12.616;2024-01-30T14:00:00;7.88;;;4.75;;
7545;SDS011;3814;51.454;12.616;2024-01-30T14:02:26;9.50;;;5.00;;
7545;SDS011;3814;51.454;12.616;2024-01-30T14:04:51;7.60;;;5.43;;
7545;SDS011;3814;51.454;12.616;2024-01-30T14:07:16;10.50;;;5.10;;
7545;SDS011;3814;51.454;12.616;2024-01-30T14:09:43;9.93;;;5.47;;
7545;SDS011;3814;51.454;12.616;2024-01-30T14:12:09;8.93;;;4.85;;
7545;SDS011;3814;51.454;12.616;2024-01-30T14:14:34;9.95;;;5.30;;
7545;SDS011;3814;51.454;12.616;2024-01-30T14:16:59;9.37;;;5.27;;
7545;SDS011;3814;51.454;12.616;2024-01-30T14:19:25;9.40;;;5.80;;
7545;SDS011;3814;51.454;12.616;2024-01-30T14:21:50;9.10;;;5.30;;
7545;SDS011;3814;51.454;12.616;2024-01-30T14:24:15;8.87;;;5.10;;
7545;SDS011;3814;51.454;12.616;2024-01-30T14:26:41;10.17;;;5.30;;
7545;SDS011;3814;51.454;12.616;2024-01-30T14:29:06;9.07;;;5.30;;
7545;SDS011;3814;51.454;12.616;2024-01-30T14:31:32;10.32;;;6.07;;
7545;SDS011;3814;51.454;12.616;2024-01-30T14:33:57;8.17;;;5.40;;
7545;SDS011;3814;51.454;12.616;2024-01-30T14:36:22;9.33;;;5.20;;
7545;SDS011;3814;51.454;12.616;2024-01-30T14:38:52;8.75;;;5.57;;
7545;SDS011;3814;51.454;12.616;2024-01-30T14:41:18;8.60;;;5.47;;
7545;SDS011;3814;51.454;12.616;2024-01-30T14:43:43;9.73;;;5.27;;
7545;SDS011;3814;51.454;12.616;2024-01-30T14:46:08;8.87;;;5.43;;
7545;SDS011;3814;51.454;12.616;2024-01-30T14:48:33;7.47;;;5.47;;
7545;SDS011;3814;51.454;12.616;2024-01-30T14:50:59;10.87;;;5.53;;